createdAt,value
2019-04-01T00:00:59.780Z,0
2019-04-01T00:01:59.844Z,0
2019-04-01T00:02:59.494Z,0
2019-04-01T00:03:59.733Z,0
2019-04-01T00:04:59.469Z,0
2019-04-01T00:05:59.702Z,0
2019-04-01T00:06:59.752Z,0
2019-04-01T00:07:59.672Z,0
2019-04-01T00:08:59.656Z,0
2019-04-01T00:09:59.393Z,0
2019-04-01T00:10:59.619Z,0
2019-04-01T00:11:59.607Z,0
2019-04-01T00:12:59.092Z,0
2019-04-01T00:13:59.569Z,0
2019-04-01T00:14:59.552Z,0
2019-04-01T00:15:59.536Z,0
2019-04-01T00:16:59.518Z,0
2019-04-01T00:17:59.506Z,0
2019-04-01T00:19:10.517Z,0
2019-04-01T00:19:59.474Z,0
2019-04-01T00:20:59.455Z,0
2019-04-01T00:21:59.439Z,0
2019-04-01T00:23:00.087Z,0
2019-04-01T00:23:59.411Z,0
2019-04-01T00:24:59.416Z,0
2019-04-01T00:25:59.372Z,0
2019-04-01T00:26:59.433Z,0
2019-04-01T00:27:59.338Z,0
2019-04-01T00:28:59.081Z,0
2019-04-01T00:29:59.336Z,0
2019-04-01T00:30:59.318Z,0
2019-04-01T00:31:59.040Z,0
2019-04-01T00:32:58.782Z,0
2019-04-01T00:33:59.246Z,0
2019-04-01T00:34:59.229Z,0
2019-04-01T00:35:59.208Z,0
2019-04-01T00:36:59.196Z,0
2019-04-01T00:37:59.169Z,0
2019-04-01T00:38:59.243Z,0
2019-04-01T00:39:59.142Z,0
2019-04-01T00:40:59.129Z,0
2019-04-01T00:41:59.108Z,0
2019-04-01T00:42:59.094Z,0
2019-04-01T00:43:59.086Z,0
2019-04-01T00:44:58.815Z,0
2019-04-01T00:45:59.043Z,0
2019-04-01T00:46:58.781Z,0
2019-04-01T00:47:58.782Z,0
2019-04-01T00:48:58.991Z,0
2019-04-01T00:49:58.726Z,0
2019-04-01T00:50:58.958Z,0
2019-04-01T00:51:58.937Z,0
2019-04-01T00:52:58.919Z,0
2019-04-01T00:53:58.916Z,0
2019-04-01T00:54:58.893Z,0
2019-04-01T00:55:59.130Z,0
2019-04-01T00:56:58.860Z,0
2019-04-01T00:57:58.836Z,0
2019-04-01T00:58:58.821Z,0
2019-04-01T00:59:58.887Z,0
2019-04-01T01:00:58.794Z,0
2019-04-01T01:01:58.294Z,0
2019-04-01T01:02:58.621Z,0
2019-04-01T01:03:58.766Z,0
2019-04-01T01:04:58.722Z,0
2019-04-01T01:05:58.702Z,0
2019-04-01T01:06:58.688Z,0
2019-04-01T01:07:58.499Z,0
2019-04-01T01:08:58.658Z,0
2019-04-01T01:09:58.697Z,0
2019-04-01T01:10:58.387Z,0
2019-04-01T01:11:58.603Z,0
2019-04-01T01:12:58.338Z,0
2019-04-01T01:13:58.575Z,0
2019-04-01T01:14:58.321Z,0
2019-04-01T01:15:58.687Z,0
2019-04-01T01:16:58.520Z,0
2019-04-01T01:17:58.273Z,0
2019-04-01T01:18:58.481Z,0
2019-04-01T01:19:57.975Z,0
2019-04-01T01:20:58.443Z,0
2019-04-01T01:21:58.196Z,0
2019-04-01T01:22:58.414Z,0
2019-04-01T01:23:58.181Z,0
2019-04-01T01:24:58.380Z,0
2019-04-01T01:25:58.362Z,0
2019-04-01T01:26:58.363Z,0
2019-04-01T01:27:58.103Z,0
2019-04-01T01:28:58.308Z,0
2019-04-01T01:29:58.287Z,0
2019-04-01T01:30:58.271Z,0
2019-04-01T01:31:58.011Z,0
2019-04-01T01:32:58.251Z,0
2019-04-01T01:33:58.220Z,0
2019-04-01T01:34:58.205Z,0
2019-04-01T01:35:58.196Z,0
2019-04-01T01:36:58.175Z,0
2019-04-01T01:37:57.904Z,0
2019-04-01T01:38:58.147Z,0
2019-04-01T01:39:58.113Z,0
2019-04-01T01:40:58.097Z,0
2019-04-01T01:41:57.840Z,0
2019-04-01T01:42:58.078Z,0
2019-04-01T01:43:58.049Z,0
2019-04-01T01:44:58.034Z,0
2019-04-01T01:45:58.024Z,0
2019-04-01T01:46:57.755Z,0
2019-04-01T01:47:57.984Z,0
2019-04-01T01:48:57.962Z,0
2019-04-01T01:49:57.963Z,0
2019-04-01T01:50:57.683Z,0
2019-04-01T01:51:57.911Z,0
2019-04-01T01:52:57.897Z,0
2019-04-01T01:53:57.877Z,0
2019-04-01T01:54:57.869Z,0
2019-04-01T01:55:57.599Z,0
2019-04-01T01:56:57.824Z,0
2019-04-01T01:57:57.820Z,0
2019-04-01T01:58:57.559Z,0
2019-04-01T01:59:57.527Z,0
2019-04-01T02:00:57.777Z,0
2019-04-01T02:01:57.746Z,0
2019-04-01T02:02:57.723Z,0
2019-04-01T02:03:57.709Z,0
2019-04-01T02:04:57.449Z,0
2019-04-01T02:05:57.684Z,0
2019-04-01T02:06:57.409Z,0
2019-04-01T02:07:57.642Z,0
2019-04-01T02:08:57.625Z,0
2019-04-01T02:09:57.365Z,0
2019-04-01T02:10:57.344Z,0
2019-04-01T02:11:57.574Z,0
2019-04-01T02:12:57.558Z,0
2019-04-01T02:13:57.536Z,0
2019-04-01T02:14:57.523Z,0
2019-04-01T02:15:57.510Z,0
2019-04-01T02:16:57.488Z,0
2019-04-01T02:17:57.486Z,0
2019-04-01T02:18:57.460Z,0
2019-04-01T02:19:56.945Z,0
2019-04-01T02:20:57.468Z,0
2019-04-01T02:21:57.403Z,0
2019-04-01T02:22:57.383Z,0
2019-04-01T02:23:57.366Z,0
2019-04-01T02:24:57.359Z,0
2019-04-01T02:25:57.335Z,0
2019-04-01T02:26:57.074Z,0
2019-04-01T02:27:57.316Z,0
2019-04-01T02:28:57.283Z,0
2019-04-01T02:29:57.266Z,0
2019-04-01T02:30:57.030Z,0
2019-04-01T02:31:57.023Z,0
2019-04-01T02:32:57.226Z,0
2019-04-01T02:33:56.979Z,0
2019-04-01T02:34:56.965Z,0
2019-04-01T02:35:57.167Z,0
2019-04-01T02:36:57.166Z,0
2019-04-01T02:37:56.927Z,0
2019-04-01T02:38:57.140Z,0
2019-04-01T02:39:57.138Z,0
2019-04-01T02:40:57.106Z,0
2019-04-01T02:41:57.090Z,0
2019-04-01T02:42:57.057Z,0
2019-04-01T02:43:57.045Z,0
2019-04-01T02:44:57.045Z,0
2019-04-01T02:45:57.018Z,0
2019-04-01T02:46:57.012Z,0
2019-04-01T02:47:56.980Z,0
2019-04-01T02:48:56.709Z,0
2019-04-01T02:49:56.939Z,0
2019-04-01T02:50:56.939Z,0
2019-04-01T02:51:56.930Z,0
2019-04-01T02:52:56.901Z,0
2019-04-01T02:53:56.895Z,0
2019-04-01T02:54:56.863Z,0
2019-04-01T02:55:56.879Z,0
2019-04-01T02:56:56.830Z,0
2019-04-01T02:57:56.825Z,0
2019-04-01T02:58:56.850Z,0
2019-04-01T02:59:56.794Z,0
2019-04-01T03:00:56.862Z,0
2019-04-01T03:01:56.768Z,0
2019-04-01T03:02:56.735Z,0
2019-04-01T03:03:56.759Z,0
2019-04-01T03:04:56.447Z,0
2019-04-01T03:05:56.690Z,0
2019-04-01T03:06:56.674Z,0
2019-04-01T03:07:56.661Z,0
2019-04-01T03:08:56.657Z,0
2019-04-01T03:09:56.649Z,0
2019-04-01T03:10:56.738Z,0
2019-04-01T03:11:56.588Z,0
2019-04-01T03:12:56.614Z,0
2019-04-01T03:13:56.561Z,0
2019-04-01T03:14:56.540Z,0
2019-04-01T03:15:56.528Z,0
2019-04-01T03:16:56.535Z,0
2019-04-01T03:17:56.023Z,0
2019-04-01T03:18:56.255Z,0
2019-04-01T03:19:56.603Z,0
2019-04-01T03:20:56.434Z,0
2019-04-01T03:21:56.467Z,0
2019-04-01T03:22:56.442Z,0
2019-04-01T03:23:56.417Z,0
2019-04-01T03:24:56.133Z,0
2019-04-01T03:25:56.351Z,0
2019-04-01T03:26:56.335Z,0
2019-04-01T03:27:56.170Z,0
2019-04-01T03:28:56.304Z,0
2019-04-01T03:29:56.289Z,0
2019-04-01T03:30:56.310Z,0
2019-04-01T03:31:56.263Z,0
2019-04-01T03:32:56.005Z,0
2019-04-01T03:33:56.265Z,0
2019-04-01T03:34:56.325Z,0
2019-04-01T03:35:56.183Z,0
2019-04-01T03:36:56.419Z,0
2019-04-01T03:37:56.153Z,0
2019-04-01T03:38:56.172Z,0
2019-04-01T03:39:56.126Z,0
2019-04-01T03:40:56.097Z,0
2019-04-01T03:41:56.095Z,0
2019-04-01T03:42:55.816Z,0
2019-04-01T03:43:56.054Z,0
2019-04-01T03:44:59.821Z,0
2019-04-01T03:45:56.010Z,0
2019-04-01T03:46:56.007Z,0
2019-04-01T03:47:55.735Z,0
2019-04-01T03:48:55.723Z,0
2019-04-01T03:49:55.711Z,0
2019-04-01T03:50:55.926Z,0
2019-04-01T03:51:55.903Z,0
2019-04-01T03:52:55.666Z,0
2019-04-01T03:53:55.630Z,0
2019-04-01T03:54:55.885Z,0
2019-04-01T03:55:55.864Z,0
2019-04-01T03:56:55.828Z,0
2019-04-01T03:57:55.566Z,0
2019-04-01T03:58:55.807Z,0
2019-04-01T03:59:55.889Z,0
2019-04-01T04:00:55.518Z,0
2019-04-01T04:01:55.748Z,0
2019-04-01T04:02:55.732Z,0
2019-04-01T04:03:55.224Z,0
2019-04-01T04:04:55.692Z,0
2019-04-01T04:05:55.710Z,0
2019-04-01T04:06:55.655Z,0
2019-04-01T04:07:55.657Z,0
2019-04-01T04:08:55.633Z,0
2019-04-01T04:09:55.601Z,0
2019-04-01T04:10:55.586Z,0
2019-04-01T04:11:55.597Z,0
2019-04-01T04:12:55.561Z,0
2019-04-01T04:13:55.532Z,0
2019-04-01T04:14:58.339Z,0
2019-04-01T04:15:55.261Z,0
2019-04-01T04:16:55.487Z,4
2019-04-01T04:17:55.620Z,0
2019-04-01T04:18:55.453Z,0
2019-04-01T04:19:55.443Z,4
2019-04-01T04:20:55.417Z,4
2019-04-01T04:21:55.177Z,4
2019-04-01T04:22:55.417Z,4
2019-04-01T04:23:55.498Z,4
2019-04-01T04:24:55.358Z,4
2019-04-01T04:25:55.341Z,8
2019-04-01T04:26:55.322Z,12
2019-04-01T04:27:55.300Z,12
2019-04-01T04:28:55.276Z,12
2019-04-01T04:29:55.284Z,16
2019-04-01T04:30:55.292Z,16
2019-04-01T04:31:55.224Z,24
2019-04-01T04:32:54.980Z,32
2019-04-01T04:33:55.200Z,32
2019-04-01T04:34:59.162Z,36
2019-04-01T04:35:55.168Z,44
2019-04-01T04:36:55.142Z,48
2019-04-01T04:37:55.122Z,56
2019-04-01T04:38:55.118Z,60
2019-04-01T04:39:55.082Z,72
2019-04-01T04:40:54.831Z,88
2019-04-01T04:41:55.050Z,96
2019-04-01T04:42:55.033Z,108
2019-04-01T04:43:55.015Z,116
2019-04-01T04:44:55.002Z,132
2019-04-01T04:45:54.985Z,148
2019-04-01T04:46:54.718Z,164
2019-04-01T04:47:54.954Z,188
2019-04-01T04:48:54.932Z,208
2019-04-01T04:49:54.910Z,224
2019-04-01T04:50:54.905Z,244
2019-04-01T04:51:54.872Z,268
2019-04-01T04:52:54.610Z,292
2019-04-01T04:53:54.836Z,308
2019-04-01T04:54:54.825Z,336
2019-04-01T04:55:54.559Z,360
2019-04-01T04:56:54.786Z,396
2019-04-01T04:57:54.767Z,432
2019-04-01T04:58:54.255Z,468
2019-04-01T04:59:54.739Z,500
2019-04-01T05:00:54.731Z,524
2019-04-01T05:01:54.464Z,552
2019-04-01T05:02:54.442Z,584
2019-04-01T05:03:54.668Z,620
2019-04-01T05:04:54.651Z,672
2019-04-01T05:05:54.642Z,724
2019-04-01T05:06:54.617Z,772
2019-04-01T05:07:54.641Z,804
2019-04-01T05:08:54.337Z,832
2019-04-01T05:09:54.310Z,868
2019-04-01T05:10:54.548Z,916
2019-04-01T05:11:54.531Z,980
2019-04-01T05:12:54.340Z,1068
2019-04-01T05:13:54.742Z,1160
2019-04-01T05:14:54.471Z,1208
2019-04-01T05:15:54.454Z,1208
2019-04-01T05:16:54.190Z,1224
2019-04-01T05:17:54.170Z,1256
2019-04-01T05:18:54.397Z,1320
2019-04-01T05:19:54.385Z,1416
2019-04-01T05:20:54.375Z,1536
2019-04-01T05:21:54.356Z,1632
2019-04-01T05:22:54.088Z,1652
2019-04-01T05:23:54.322Z,1644
2019-04-01T05:24:54.304Z,1668
2019-04-01T05:25:54.281Z,1724
2019-04-01T05:26:54.265Z,1824
2019-04-01T05:27:54.249Z,1944
2019-04-01T05:28:54.221Z,2028
2019-04-01T05:29:53.965Z,2012
2019-04-01T05:30:54.198Z,1960
2019-04-01T05:31:54.215Z,1952
2019-04-01T05:32:53.915Z,2008
2019-04-01T05:34:02.439Z,2108
2019-04-01T05:34:54.127Z,2164
2019-04-01T05:35:54.104Z,2160
2019-04-01T05:36:54.110Z,2120
2019-04-01T05:37:53.837Z,2104
2019-04-01T05:38:53.803Z,2128
2019-04-01T05:39:53.785Z,2196
2019-04-01T05:40:53.780Z,2284
2019-04-01T05:41:53.998Z,2352
2019-04-01T05:42:53.977Z,2376
2019-04-01T05:43:53.719Z,2368
2019-04-01T05:44:53.945Z,2376
2019-04-01T05:45:53.691Z,2420
2019-04-01T05:46:53.913Z,2504
2019-04-01T05:47:53.643Z,2592
2019-04-01T05:48:53.876Z,2648
2019-04-01T05:49:53.860Z,2656
2019-04-01T05:50:53.848Z,2652
2019-04-01T05:51:53.822Z,2668
2019-04-01T05:52:53.807Z,2724
2019-04-01T05:53:53.543Z,2796
2019-04-01T05:54:53.527Z,2868
2019-04-01T05:55:53.513Z,2912
2019-04-01T05:56:53.578Z,2932
2019-04-01T05:57:53.727Z,2948
2019-04-01T05:58:53.707Z,2984
2019-04-01T05:59:53.441Z,3048
2019-04-01T06:00:53.488Z,3120
2019-04-01T06:01:53.647Z,3180
2019-04-01T06:02:53.384Z,3212
2019-04-01T06:03:53.623Z,3228
2019-04-01T06:04:53.612Z,3264
2019-04-01T06:05:53.582Z,3316
2019-04-01T06:06:56.081Z,3384
2019-04-01T06:07:53.309Z,3420
2019-04-01T06:08:53.283Z,3408
2019-04-01T06:09:53.511Z,3388
2019-04-01T06:10:53.245Z,3380
2019-04-01T06:11:53.480Z,3404
2019-04-01T06:12:53.460Z,3472
2019-04-01T06:13:53.454Z,3512
2019-04-01T06:14:53.425Z,3508
2019-04-01T06:15:53.409Z,3500
2019-04-01T06:16:53.171Z,3488
2019-04-01T06:17:53.403Z,3496
2019-04-01T06:18:53.359Z,3540
2019-04-01T06:19:53.350Z,3580
2019-04-01T06:20:53.321Z,3612
2019-04-01T06:21:53.304Z,3648
2019-04-01T06:22:53.290Z,3684
2019-04-01T06:23:53.274Z,3720
2019-04-01T06:24:53.015Z,3784
2019-04-01T06:25:53.249Z,3856
2019-04-01T06:26:53.227Z,3928
2019-04-01T06:27:52.958Z,3960
2019-04-01T06:28:52.955Z,3936
2019-04-01T06:29:52.926Z,3916
2019-04-01T06:30:52.913Z,3884
2019-04-01T06:31:53.144Z,3888
2019-04-01T06:32:53.132Z,4004
2019-04-01T06:33:53.110Z,4208
2019-04-01T06:34:59.982Z,4524
2019-04-01T06:35:53.082Z,4776
2019-04-01T06:36:53.070Z,4620
2019-04-01T06:37:53.041Z,4804
2019-04-01T06:38:53.112Z,5024
2019-04-01T06:39:53.005Z,5004
2019-04-01T06:40:52.751Z,5028
2019-04-01T06:41:52.481Z,5136
2019-04-01T06:42:53.078Z,5448
2019-04-01T06:43:52.944Z,5336
2019-04-01T06:44:52.932Z,5144
2019-04-01T06:45:52.661Z,4888
2019-04-01T06:46:52.896Z,5076
2019-04-01T06:47:52.880Z,5524
2019-04-01T06:48:52.614Z,5548
2019-04-01T06:49:52.848Z,5544
2019-04-01T06:50:52.831Z,5724
2019-04-01T06:51:52.817Z,5512
2019-04-01T06:52:52.803Z,4988
2019-04-01T06:53:52.792Z,4752
2019-04-01T06:54:52.794Z,4704
2019-04-01T06:55:52.526Z,4744
2019-04-01T06:56:52.742Z,4624
2019-04-01T06:57:52.728Z,4608
2019-04-01T06:58:52.718Z,4620
2019-04-01T06:59:52.455Z,4560
2019-04-01T07:00:52.445Z,4532
2019-04-01T07:01:52.676Z,4504
2019-04-01T07:02:52.658Z,4480
2019-04-01T07:03:52.644Z,4524
2019-04-01T07:04:52.626Z,4556
2019-04-01T07:05:52.369Z,4564
2019-04-01T07:06:52.355Z,4584
2019-04-01T07:07:52.337Z,4616
2019-04-01T07:08:52.323Z,4640
2019-04-01T07:09:55.554Z,4680
2019-04-01T07:10:52.554Z,4704
2019-04-01T07:11:52.687Z,4704
2019-04-01T07:12:52.514Z,4716
2019-04-01T07:13:52.502Z,4708
2019-04-01T07:14:52.573Z,4696
2019-04-01T07:15:52.475Z,4724
2019-04-01T07:16:52.329Z,4780
2019-04-01T07:17:52.473Z,4792
2019-04-01T07:18:52.207Z,4772
2019-04-01T07:19:52.423Z,4756
2019-04-01T07:20:52.415Z,4744
2019-04-01T07:21:54.382Z,4748
2019-04-01T07:22:52.153Z,4744
2019-04-01T07:23:51.969Z,4748
2019-04-01T07:24:52.115Z,4720
2019-04-01T07:25:52.104Z,4688
2019-04-01T07:26:52.341Z,4684
2019-04-01T07:27:52.326Z,4712
2019-04-01T07:28:52.312Z,4744
2019-04-01T07:29:52.295Z,4740
2019-04-01T07:30:52.042Z,4704
2019-04-01T07:31:52.031Z,4648
2019-04-01T07:32:52.016Z,4588
2019-04-01T07:33:52.269Z,4556
2019-04-01T07:34:52.267Z,4556
2019-04-01T07:35:53.963Z,4568
2019-04-01T07:36:52.217Z,4580
2019-04-01T07:37:52.216Z,4592
2019-04-01T07:38:52.203Z,4596
2019-04-01T07:39:52.181Z,4596
2019-04-01T07:40:51.927Z,4580
2019-04-01T07:41:52.149Z,4560
2019-04-01T07:42:52.315Z,4528
2019-04-01T07:43:51.973Z,4512
2019-04-01T07:44:52.118Z,4508
2019-04-01T07:45:52.106Z,4512
2019-04-01T07:46:52.084Z,4524
2019-04-01T07:47:54.083Z,4532
2019-04-01T07:48:52.089Z,4516
2019-04-01T07:49:52.085Z,4512
2019-04-01T07:50:52.187Z,4520
2019-04-01T07:51:52.038Z,4520
2019-04-01T07:52:55.089Z,4528
2019-04-01T07:53:52.016Z,4548
2019-04-01T07:54:51.998Z,4580
2019-04-01T07:55:52.068Z,4600
2019-04-01T07:56:51.988Z,4616
2019-04-01T07:57:51.726Z,4636
2019-04-01T07:58:51.947Z,4656
2019-04-01T07:59:51.943Z,4652
2019-04-01T08:00:51.674Z,4652
2019-04-01T08:01:55.223Z,4644
2019-04-01T08:02:53.829Z,4636
2019-04-01T08:03:51.889Z,4632
2019-04-01T08:04:51.637Z,4640
2019-04-01T08:05:51.878Z,4648
2019-04-01T08:06:51.857Z,4660
2019-04-01T08:07:51.848Z,4672
2019-04-01T08:08:53.567Z,4668
2019-04-01T08:09:51.820Z,4676
2019-04-01T08:10:51.816Z,4656
2019-04-01T08:11:54.712Z,4600
2019-04-01T08:12:51.543Z,4588
2019-04-01T08:13:51.777Z,4608
2019-04-01T08:14:51.763Z,4636
2019-04-01T08:15:51.757Z,4644
2019-04-01T08:16:51.745Z,4632
2019-04-01T08:17:51.485Z,4632
2019-04-01T08:18:51.476Z,4636
2019-04-01T08:19:51.736Z,4644
2019-04-01T08:20:51.701Z,4644
2019-04-01T08:21:54.807Z,4636
2019-04-01T08:22:51.681Z,4620
2019-04-01T08:23:51.428Z,4624
2019-04-01T08:24:51.654Z,4628
2019-04-01T08:25:55.142Z,4640
2019-04-01T08:26:51.632Z,4648
2019-04-01T08:27:51.625Z,4632
2019-04-01T08:28:51.612Z,4640
2019-04-01T08:29:51.350Z,4644
2019-04-01T08:30:51.344Z,4656
2019-04-01T08:31:51.339Z,4656
2019-04-01T08:32:51.561Z,4648
2019-04-01T08:33:55.066Z,4640
2019-04-01T08:34:51.558Z,4620
2019-04-01T08:35:51.529Z,4596
2019-04-01T08:36:51.513Z,4576
2019-04-01T08:37:51.512Z,4576
2019-04-01T08:38:51.252Z,4576
2019-04-01T08:39:51.245Z,4580
2019-04-01T08:40:51.472Z,4576
2019-04-01T08:41:51.458Z,4600
2019-04-01T08:42:53.842Z,4628
2019-04-01T08:43:51.439Z,4644
2019-04-01T08:44:51.188Z,4652
2019-04-01T08:45:51.416Z,4644
2019-04-01T08:46:51.168Z,4640
2019-04-01T08:47:50.901Z,4640
2019-04-01T08:48:51.386Z,4640
2019-04-01T08:49:51.379Z,4656
2019-04-01T08:50:51.363Z,4692
2019-04-01T08:51:51.359Z,4736
2019-04-01T08:52:51.348Z,4768
2019-04-01T08:53:51.335Z,4752
2019-04-01T08:54:54.420Z,4708
2019-04-01T08:56:00.248Z,4692
2019-04-01T08:56:51.310Z,4700
2019-04-01T08:57:51.045Z,4692
2019-04-01T08:58:51.279Z,4672
2019-04-01T08:59:51.280Z,4708
2019-04-01T09:00:51.323Z,4720
2019-04-01T09:01:51.247Z,4696
2019-04-01T09:02:51.242Z,4696
2019-04-01T09:03:50.989Z,4712
2019-04-01T09:04:51.229Z,4740
2019-04-01T09:05:51.519Z,4752
2019-04-01T09:06:51.203Z,4752
2019-04-01T09:07:51.188Z,4724
2019-04-01T09:08:51.187Z,4704
2019-04-01T09:09:51.163Z,4684
2019-04-01T09:10:51.162Z,4704
2019-04-01T09:11:51.139Z,4732
2019-04-01T09:12:51.136Z,4788
2019-04-01T09:13:51.174Z,4812
2019-04-01T09:14:51.113Z,4908
2019-04-01T09:15:51.114Z,5076
2019-04-01T09:16:50.996Z,5488
2019-04-01T09:17:50.840Z,5952
2019-04-01T09:18:51.071Z,5888
2019-04-01T09:19:50.818Z,5548
2019-04-01T09:20:51.053Z,5628
2019-04-01T09:21:50.794Z,6284
2019-04-01T09:22:51.034Z,6808
2019-04-01T09:23:54.506Z,6992
2019-04-01T09:24:51.022Z,6576
2019-04-01T09:25:51.006Z,6420
2019-04-01T09:26:50.990Z,6624
2019-04-01T09:27:51.051Z,7176
2019-04-01T09:28:50.734Z,7892
2019-04-01T09:29:50.984Z,8476
2019-04-01T09:30:50.959Z,9164
2019-04-01T09:31:50.704Z,9552
2019-04-01T09:32:50.689Z,9512
2019-04-01T09:33:50.685Z,9764
2019-04-01T09:34:50.915Z,10296
2019-04-01T09:35:50.907Z,10648
2019-04-01T09:36:50.894Z,10460
2019-04-01T09:37:50.885Z,10104
2019-04-01T09:38:50.871Z,9500
2019-04-01T09:39:50.643Z,9272
2019-04-01T09:40:50.851Z,9396
2019-04-01T09:41:50.946Z,9076
2019-04-01T09:42:50.642Z,8756
2019-04-01T09:43:50.828Z,8936
2019-04-01T09:44:50.829Z,9652
2019-04-01T09:45:50.811Z,10532
2019-04-01T09:46:53.839Z,11016
2019-04-01T09:47:50.796Z,10932
2019-04-01T09:48:50.769Z,11212
2019-04-01T09:49:50.762Z,11424
2019-04-01T09:50:50.512Z,11472
2019-04-01T09:51:56.103Z,11604
2019-04-01T09:52:50.754Z,11532
2019-04-01T09:53:50.777Z,11084
2019-04-01T09:54:50.719Z,10480
2019-04-01T09:55:50.461Z,10056
2019-04-01T09:56:50.695Z,9752
2019-04-01T09:57:50.695Z,9828
2019-04-01T09:58:50.504Z,10088
2019-04-01T09:59:50.673Z,10332
2019-04-01T10:00:53.111Z,10848
2019-04-01T10:01:50.660Z,11108
2019-04-01T10:02:50.643Z,11296
2019-04-01T10:03:50.638Z,11416
2019-04-01T10:04:50.619Z,11364
2019-04-01T10:05:50.609Z,11300
2019-04-01T10:06:50.361Z,11212
2019-04-01T10:07:50.952Z,10996
2019-04-01T10:08:50.586Z,10996
2019-04-01T10:09:50.091Z,11236
2019-04-01T10:10:50.563Z,11532
2019-04-01T10:11:50.556Z,11708
2019-04-01T10:12:50.548Z,11764
2019-04-01T10:13:50.535Z,11552
2019-04-01T10:14:50.527Z,11312
2019-04-01T10:15:50.516Z,11184
2019-04-01T10:16:50.512Z,11280
2019-04-01T10:17:50.498Z,11208
2019-04-01T10:18:50.498Z,11384
2019-04-01T10:19:50.482Z,11728
2019-04-01T10:20:50.484Z,11928
2019-04-01T10:21:52.542Z,12064
2019-04-01T10:22:50.472Z,12224
2019-04-01T10:23:50.459Z,12356
2019-04-01T10:24:50.195Z,12548
2019-04-01T10:25:53.624Z,12440
2019-04-01T10:26:50.443Z,12184
2019-04-01T10:27:50.414Z,12028
2019-04-01T10:28:50.403Z,12004
2019-04-01T10:29:50.397Z,11980
2019-04-01T10:30:50.142Z,11760
2019-04-01T10:31:50.373Z,11436
2019-04-01T10:32:50.380Z,11196
2019-04-01T10:33:50.371Z,11104
2019-04-01T10:34:50.358Z,10700
2019-04-01T10:35:50.347Z,10328
2019-04-01T10:36:50.372Z,10260
2019-04-01T10:37:50.360Z,10716
2019-04-01T10:38:53.782Z,11148
2019-04-01T10:39:50.312Z,11444
2019-04-01T10:40:50.307Z,11720
2019-04-01T10:41:50.312Z,11816
2019-04-01T10:42:50.295Z,11776
2019-04-01T10:43:50.294Z,11728
2019-04-01T10:44:50.270Z,11576
2019-04-01T10:45:50.273Z,11736
2019-04-01T10:46:50.356Z,12100
2019-04-01T10:47:50.153Z,12364
2019-04-01T10:48:50.451Z,12424
2019-04-01T10:49:50.495Z,12300
2019-04-01T10:50:50.333Z,12088
2019-04-01T10:51:50.425Z,12060
2019-04-01T10:52:51.540Z,12128
2019-04-01T10:53:50.420Z,12156
2019-04-01T10:54:50.450Z,12104
2019-04-01T10:55:50.087Z,12116
2019-04-01T10:56:50.321Z,12312
2019-04-01T10:57:53.844Z,12496
2019-04-01T10:58:50.291Z,12624
2019-04-01T10:59:50.399Z,12668
2019-04-01T11:00:50.074Z,12552
2019-04-01T11:01:50.266Z,12544
2019-04-01T11:02:52.535Z,12176
2019-04-01T11:03:50.360Z,12056
2019-04-01T11:04:50.230Z,11588
2019-04-01T11:05:50.240Z,11252
2019-04-01T11:06:50.230Z,10860
2019-04-01T11:07:50.404Z,10264
2019-04-01T11:08:50.268Z,9608
2019-04-01T11:09:49.845Z,9084
2019-04-01T11:10:50.073Z,8848
2019-04-01T11:11:50.066Z,8684
2019-04-01T11:12:50.074Z,8768
2019-04-01T11:13:54.391Z,8524
2019-04-01T11:14:50.052Z,8192
2019-04-01T11:15:50.894Z,7832
2019-04-01T11:16:50.989Z,7648
2019-04-01T11:17:54.653Z,7432
2019-04-01T11:18:50.039Z,7176
2019-04-01T11:19:50.065Z,7204
2019-04-01T11:20:50.015Z,7180
2019-04-01T11:21:49.754Z,7452
2019-04-01T11:22:50.001Z,7360
2019-04-01T11:23:50.009Z,7080
2019-04-01T11:24:50.010Z,6888
2019-04-01T11:25:49.738Z,6596
2019-04-01T11:26:49.966Z,6416
2019-04-01T11:27:49.961Z,6100
2019-04-01T11:28:49.956Z,5908
2019-04-01T11:29:49.944Z,5948
2019-04-01T11:30:50.016Z,6332
2019-04-01T11:31:50.024Z,6848
2019-04-01T11:32:50.017Z,7728
2019-04-01T11:33:50.066Z,8052
2019-04-01T11:34:50.125Z,8212
2019-04-01T11:35:50.926Z,7828
2019-04-01T11:36:50.641Z,7864
2019-04-01T11:37:50.013Z,7996
2019-04-01T11:38:50.264Z,8204
2019-04-01T11:39:49.980Z,9160
2019-04-01T11:40:51.225Z,10376
2019-04-01T11:41:50.042Z,11208
2019-04-01T11:42:49.681Z,11620
2019-04-01T11:43:50.034Z,11660
2019-04-01T11:44:49.967Z,11752
2019-04-01T11:45:50.065Z,11252
2019-04-01T11:46:49.687Z,10852
2019-04-01T11:47:49.862Z,10872
2019-04-01T11:48:49.997Z,11468
2019-04-01T11:49:49.918Z,12044
2019-04-01T11:50:53.767Z,12272
2019-04-01T11:51:49.910Z,12224
2019-04-01T11:52:49.874Z,12180
2019-04-01T11:53:49.765Z,11744
2019-04-01T11:54:49.762Z,11460
2019-04-01T11:55:49.760Z,11064
2019-04-01T11:56:49.498Z,10844
2019-04-01T11:57:49.738Z,10556
2019-04-01T11:58:49.246Z,10436
2019-04-01T11:59:49.716Z,10212
2019-04-01T12:00:49.730Z,10072
2019-04-01T12:01:50.135Z,10532
2019-04-01T12:02:50.980Z,10440
2019-04-01T12:03:49.690Z,10480
2019-04-01T12:04:49.688Z,10720
2019-04-01T12:05:49.679Z,10144
2019-04-01T12:06:49.682Z,9484
2019-04-01T12:07:49.668Z,9664
2019-04-01T12:08:49.741Z,9928
2019-04-01T12:09:52.197Z,10168
2019-04-01T12:10:49.642Z,9932
2019-04-01T12:11:49.388Z,9396
2019-04-01T12:12:49.628Z,9160
2019-04-01T12:13:49.374Z,8904
2019-04-01T12:14:49.617Z,8680
2019-04-01T12:15:49.606Z,7992
2019-04-01T12:16:49.356Z,7500
2019-04-01T12:17:49.609Z,7308
2019-04-01T12:18:49.826Z,7684
2019-04-01T12:19:53.018Z,8324
2019-04-01T12:20:49.576Z,8744
2019-04-01T12:21:49.310Z,8824
2019-04-01T12:22:52.982Z,8504
2019-04-01T12:23:49.547Z,8568
2019-04-01T12:24:49.286Z,8676
2019-04-01T12:25:49.542Z,8664
2019-04-01T12:26:49.789Z,8716
2019-04-01T12:27:50.040Z,8940
2019-04-01T12:28:50.404Z,8852
2019-04-01T12:29:52.976Z,8416
2019-04-01T12:30:49.487Z,7808
2019-04-01T12:31:49.478Z,7164
2019-04-01T12:32:49.715Z,6528
2019-04-01T12:33:50.328Z,5620
2019-04-01T12:34:49.532Z,5156
2019-04-01T12:35:49.801Z,5084
2019-04-01T12:36:49.535Z,4948
2019-04-01T12:37:50.643Z,5152
2019-04-01T12:38:49.182Z,5108
2019-04-01T12:39:49.421Z,5352
2019-04-01T12:40:49.413Z,5852
2019-04-01T12:41:50.136Z,6184
2019-04-01T12:42:53.322Z,6032
2019-04-01T12:43:49.391Z,6008
2019-04-01T12:44:49.386Z,6092
2019-04-01T12:45:49.368Z,6316
2019-04-01T12:46:49.383Z,6612
2019-04-01T12:47:50.645Z,6968
2019-04-01T12:48:49.357Z,6896
2019-04-01T12:49:49.352Z,6772
2019-04-01T12:50:49.328Z,6944
2019-04-01T12:51:49.913Z,6848
2019-04-01T12:52:49.459Z,6884
2019-04-01T12:53:50.651Z,7160
2019-04-01T12:54:49.253Z,7468
2019-04-01T12:55:51.901Z,8004
2019-04-01T12:56:49.307Z,8360
2019-04-01T12:57:53.347Z,8088
2019-04-01T12:58:49.077Z,8004
2019-04-01T12:59:53.562Z,7920
2019-04-01T13:00:49.264Z,7724
2019-04-01T13:01:49.613Z,7448
2019-04-01T13:02:49.583Z,7440
2019-04-01T13:03:49.223Z,7380
2019-04-01T13:04:53.736Z,7360
2019-04-01T13:05:49.205Z,7484
2019-04-01T13:06:49.199Z,7648
2019-04-01T13:07:50.009Z,8084
2019-04-01T13:08:49.180Z,7964
2019-04-01T13:09:49.178Z,7660
2019-04-01T13:10:50.374Z,7524
2019-04-01T13:11:49.163Z,7488
2019-04-01T13:12:49.203Z,8076
2019-04-01T13:13:51.320Z,8420
2019-04-01T13:14:50.551Z,8168
2019-04-01T13:15:49.130Z,8064
2019-04-01T13:16:49.122Z,8328
2019-04-01T13:17:49.248Z,8968
2019-04-01T13:18:49.966Z,9452
2019-04-01T13:19:49.977Z,9660
2019-04-01T13:20:51.678Z,10200
2019-04-01T13:21:49.083Z,10208
2019-04-01T13:22:48.969Z,10068
2019-04-01T13:23:48.818Z,9956
2019-04-01T13:24:48.818Z,9796
2019-04-01T13:25:49.049Z,9896
2019-04-01T13:26:50.804Z,9836
2019-04-01T13:27:48.800Z,9400
2019-04-01T13:28:49.668Z,9400
2019-04-01T13:29:49.023Z,9408
2019-04-01T13:30:49.022Z,8932
2019-04-01T13:31:49.024Z,8336
2019-04-01T13:32:49.193Z,7868
2019-04-01T13:33:49.905Z,7288
2019-04-01T13:34:48.989Z,6840
2019-04-01T13:35:48.997Z,6260
2019-04-01T13:36:49.247Z,5948
2019-04-01T13:37:49.528Z,5812
2019-04-01T13:38:49.173Z,5964
2019-04-01T13:39:49.016Z,5892
2019-04-01T13:40:49.463Z,5800
2019-04-01T13:41:50.511Z,6088
2019-04-01T13:42:50.265Z,6240
2019-04-01T13:43:48.927Z,6132